Date,TemperatureHighF,TemperatureAvgF,TemperatureLowF,DewpointHighF,DewpointAvgF,DewpointLowF,HumidityHigh,HumidityAvg,HumidityLow,PressureMaxIn,PressureMinIn,WindSpeedMaxMPH,WindSpeedAvgMPH,GustSpeedMaxMPH,PrecipitationSumIn
2013-1-1,49,46,43,48,38,26,94,75,45,30.03,29.86,8,1,13,0.23
2013-1-2,49,44,40,47,38,30,95,78,59,30.13,29.86,7,0,13,0.16
2013-1-3,42,38,30,31,28,24,88,68,56,30.22,30.08,2,0,7,0.00
2013-1-4,49,37,28,26,21,18,83,54,30,30.28,30.15,10,2,17,0.00
2013-1-5,49,38,26,30,22,19,78,54,30,30.35,30.18,5,0,8,0.00
2013-1-6,52,43,37,37,34,29,88,71,51,30.16,29.99,3,0,8,0.02
2013-1-7,50,38,30,30,28,25,87,67,43,30.38,30.14,6,0,11,0.00
2013-1-8,56,42,28,40,34,24,90,74,52,30.42,30.31,2,0,6,0.00
2013-1-9,64,50,37,50,43,34,92,77,59,30.39,30.29,5,0,7,0.00
2013-1-10,60,52,44,48,40,30,93,68,32,30.46,30.34,5,0,10,0.00
2013-1-11,49,44,41,45,42,39,95,91,71,30.34,30.10,5,0,7,0.16
2013-1-12,66,55,46,60,53,45,95,91,78,30.11,30.02,4,0,8,0.00
2013-1-13,74,61,53,61,56,52,95,84,60,30.05,29.95,7,1,12,0.01
2013-1-14,64,61,56,62,59,54,95,93,86,30.08,29.98,3,0,11,0.39
2013-1-15,55,44,41,53,42,39,95,94,92,30.16,30.02,11,2,13,0.19
2013-1-16,50,45,40,49,43,38,95,94,94,30.02,29.90,5,0,8,0.30
2013-1-17,50,44,34,49,42,32,95,94,91,30.12,29.84,11,1,20,1.65
2013-1-18,42,34,28,33,29,25,94,82,54,30.49,30.10,5,0,7,0.44
2013-1-19,50,37,27,34,28,24,91,72,44,30.45,30.09,6,0,8,0.25
2013-1-20,59,46,35,34,29,26,74,54,32,30.09,29.94,8,2,13,0.00
2013-1-21,58,44,28,33,25,12,91,53,27,30.02,29.82,13,3,19,0.00
2013-1-22,40,32,24,13,3,-4,43,30,18,30.23,29.91,8,2,17,0.00
2013-1-23,42,28,17,18,11,2,70,49,28,30.32,29.99,7,1,12,0.00
2013-1-24,38,30,24,23,11,0,82,48,24,30.45,29.92,11,2,20,0.00
2013-1-25,25,23,20,22,12,1,88,65,36,30.47,30.08,4,1,8,0.00
2013-1-26,40,30,25,31,26,22,91,84,64,30.35,30.06,3,0,8,0.11
2013-1-27,42,33,22,27,24,18,87,70,52,30.54,30.36,4,0,10,0.01
2013-1-28,49,41,33,43,34,26,92,76,57,30.43,30.17,7,1,8,0.04
2013-1-29,72,57,45,55,50,43,95,79,54,30.17,29.95,7,1,14,0.00
2013-1-30,72,66,58,63,59,55,90,81,63,29.95,29.30,19,3,24,0.47
2013-1-31,57,43,32,54,26,16,88,52,31,29.94,29.36,18,5,31,0.03